sensor_id;sensor_type;location;lat;lon;timestamp;temperature;humidity
14031;DHT22;7090;49.436;8.490;2023-07-31T00:02:00;19.40;99.90
14031;DHT22;7090;49.436;8.490;2023-07-31T00:04:25;19.40;99.90
14031;DHT22;7090;49.436;8.490;2023-07-31T00:06:51;19.40;99.90
14031;DHT22;7090;49.436;8.490;2023-07-31T00:09:16;19.40;99.90
14031;DHT22;7090;49.436;8.490;2023-07-31T00:11:42;19.40;36.90
14031;DHT22;7090;49.436;8.490;2023-07-31T00:14:07;19.30;18.70
14031;DHT22;7090;49.436;8.490;2023-07-31T00:16:33;19.30;83.90
14031;DHT22;7090;49.436;8.490;2023-07-31T00:18:59;19.30;99.90
14031;DHT22;7090;49.436;8.490;2023-07-31T00:21:24;19.20;99.90
14031;DHT22;7090;49.436;8.490;2023-07-31T00:23:50;19.30;44.40
14031;DHT22;7090;49.436;8.490;2023-07-31T00:26:15;19.20;1.00
14031;DHT22;7090;49.436;8.490;2023-07-31T00:28:41;19.20;1.00
14031;DHT22;7090;49.436;8.490;2023-07-31T00:31:07;19.20;23.40
14031;DHT22;7090;49.436;8.490;2023-07-31T00:33:35;19.20;1.00
14031;DHT22;7090;49.436;8.490;2023-07-31T00:36:00;19.20;1.00
14031;DHT22;7090;49.436;8.490;2023-07-31T00:38:26;19.30;1.00
14031;DHT22;7090;49.436;8.490;2023-07-31T00:40:51;19.10;1.00
14031;DHT22;7090;49.436;8.490;2023-07-31T00:43:17;19.10;38.70
14031;DHT22;7090;49.436;8.490;2023-07-31T00:45:43;19.10;9.80
14031;DHT22;7090;49.436;8.490;2023-07-31T00:48:08;19.00;1.00
14031;DHT22;7090;49.436;8.490;2023-07-31T00:50:35;19.00;5.80
14031;DHT22;7090;49.436;8.490;2023-07-31T00:53:01;19.00;90.40
14031;DHT22;7090;49.436;8.490;2023-07-31T00:55:26;18.90;42.90
14031;DHT22;7090;49.436;8.490;2023-07-31T00:57:52;18.90;99.90
14031;DHT22;7090;49.436;8.490;2023-07-31T01:00:21;18.90;52.50
14031;DHT22;7090;49.436;8.490;2023-07-31T01:02:47;18.80;99.90
14031;DHT22;7090;49.436;8.490;2023-07-31T01:05:13;18.80;99.90
14031;DHT22;7090;49.436;8.490;2023-07-31T01:10:24;18.70;99.90
14031;DHT22;7090;49.436;8.490;2023-07-31T01:12:51;18.60;99.90
14031;DHT22;7090;49.436;8.490;2023-07-31T01:15:18;18.60;99.90
14031;DHT22;7090;49.436;8.490;2023-07-31T01:17:44;18.60;99.90
14031;DHT22;7090;49.436;8.490;2023-07-31T01:20:19;18.50;99.90
14031;DHT22;7090;49.436;8.490;2023-07-31T01:28:20;18.50;1.00
14031;DHT22;7090;49.436;8.490;2023-07-31T01:30:48;18.50;1.00
14031;DHT22;7090;49.436;8.490;2023-07-31T01:33:15;18.40;1.00
14031;DHT22;7090;49.436;8.490;2023-07-31T01:35:44;18.50;1.00
14031;DHT22;7090;49.436;8.490;2023-07-31T01:38:10;18.40;1.00
14031;DHT22;7090;49.436;8.490;2023-07-31T01:40:35;18.40;1.00
14031;DHT22;7090;49.436;8.490;2023-07-31T01:43:01;18.40;1.00
14031;DHT22;7090;49.436;8.490;2023-07-31T01:45:26;18.40;1.00
14031;DHT22;7090;49.436;8.490;2023-07-31T01:47:52;18.40;1.00
14031;DHT22;7090;49.436;8.490;2023-07-31T01:50:18;18.40;1.00
14031;DHT22;7090;49.436;8.490;2023-07-31T01:52:43;18.30;1.00
14031;DHT22;7090;49.436;8.490;2023-07-31T01:55:09;18.30;1.00
14031;DHT22;7090;49.436;8.490;2023-07-31T01:57:36;18.30;1.00
14031;DHT22;7090;49.436;8.490;2023-07-31T02:00:02;18.40;1.00
14031;DHT22;7090;49.436;8.490;2023-07-31T02:02:27;18.30;1.00
14031;DHT22;7090;49.436;8.490;2023-07-31T02:04:53;18.30;1.00
14031;DHT22;7090;49.436;8.490;2023-07-31T02:07:19;18.40;1.00
14031;DHT22;7090;49.436;8.490;2023-07-31T02:09:44;18.40;1.00
14031;DHT22;7090;49.436;8.490;2023-07-31T02:12:12;18.30;1.00
14031;DHT22;7090;49.436;8.490;2023-07-31T02:14:39;18.30;1.00
14031;DHT22;7090;49.436;8.490;2023-07-31T02:17:05;18.30;1.00
14031;DHT22;7090;49.436;8.490;2023-07-31T02:19:31;18.30;1.00
14031;DHT22;7090;49.436;8.490;2023-07-31T02:21:56;18.30;1.00
14031;DHT22;7090;49.436;8.490;2023-07-31T02:24:22;18.30;1.00
14031;DHT22;7090;49.436;8.490;2023-07-31T02:26:48;18.30;1.00
14031;DHT22;7090;49.436;8.490;2023-07-31T02:29:13;18.20;1.00
14031;DHT22;7090;49.436;8.490;2023-07-31T02:31:39;18.20;1.00
14031;DHT22;7090;49.436;8.490;2023-07-31T02:34:04;18.20;1.00
14031;DHT22;7090;49.436;8.490;2023-07-31T02:36:30;18.20;1.00
14031;DHT22;7090;49.436;8.490;2023-07-31T02:38:55;18.10;1.00
14031;DHT22;7090;49.436;8.490;2023-07-31T02:41:21;18.20;38.40
14031;DHT22;7090;49.436;8.490;2023-07-31T02:43:46;18.10;99.90
14031;DHT22;7090;49.436;8.490;2023-07-31T02:46:12;18.10;99.90
14031;DHT22;7090;49.436;8.490;2023-07-31T02:48:37;18.10;99.90
14031;DHT22;7090;49.436;8.490;2023-07-31T02:51:03;18.10;99.90
14031;DHT22;7090;49.436;8.490;2023-07-31T02:53:29;18.20;99.90
14031;DHT22;7090;49.436;8.490;2023-07-31T02:55:54;18.20;99.90
14031;DHT22;7090;49.436;8.490;2023-07-31T02:58:20;18.00;99.90
14031;DHT22;7090;49.436;8.490;2023-07-31T03:00:45;18.00;99.90
14031;DHT22;7090;49.436;8.490;2023-07-31T03:03:11;18.00;99.90
14031;DHT22;7090;49.436;8.490;2023-07-31T03:05:37;18.00;99.90
14031;DHT22;7090;49.436;8.490;2023-07-31T03:08:03;18.00;99.90
14031;DHT22;7090;49.436;8.490;2023-07-31T03:10:29;17.90;99.90
14031;DHT22;7090;49.436;8.490;2023-07-31T03:12:54;17.90;1.00
14031;DHT22;7090;49.436;8.490;2023-07-31T03:15:20;17.80;1.00
14031;DHT22;7090;49.436;8.490;2023-07-31T03:17:46;17.80;1.00
14031;DHT22;7090;49.436;8.490;2023-07-31T03:20:11;17.70;1.00
14031;DHT22;7090;49.436;8.490;2023-07-31T03:22:37;17.70;1.00
14031;DHT22;7090;49.436;8.490;2023-07-31T03:25:03;17.70;1.00
14031;DHT22;7090;49.436;8.490;2023-07-31T03:27:29;17.60;1.00
14031;DHT22;7090;49.436;8.490;2023-07-31T03:29:55;17.70;1.00
14031;DHT22;7090;49.436;8.490;2023-07-31T03:32:21;17.70;1.00
14031;DHT22;7090;49.436;8.490;2023-07-31T03:34:46;17.60;1.00
14031;DHT22;7090;49.436;8.490;2023-07-31T03:37:12;17.60;1.00
14031;DHT22;7090;49.436;8.490;2023-07-31T03:39:38;17.60;1.00
14031;DHT22;7090;49.436;8.490;2023-07-31T03:42:04;17.60;1.00
14031;DHT22;7090;49.436;8.490;2023-07-31T03:44:29;17.50;1.00
14031;DHT22;7090;49.436;8.490;2023-07-31T03:46:55;17.50;1.00
14031;DHT22;7090;49.436;8.490;2023-07-31T03:49:20;17.50;1.00
14031;DHT22;7090;49.436;8.490;2023-07-31T03:51:46;17.50;1.00
14031;DHT22;7090;49.436;8.490;2023-07-31T03:54:12;17.50;1.00
14031;DHT22;7090;49.436;8.490;2023-07-31T03:56:38;17.50;1.00
14031;DHT22;7090;49.436;8.490;2023-07-31T03:59:04;17.50;1.00
14031;DHT22;7090;49.436;8.490;2023-07-31T04:01:29;17.50;1.00
14031;DHT22;7090;49.436;8.490;2023-07-31T04:03:55;17.50;1.00
14031;DHT22;7090;49.436;8.490;2023-07-31T04:06:21;17.50;1.00
14031;DHT22;7090;49.436;8.490;2023-07-31T04:08:46;17.60;1.00
14031;DHT22;7090;49.436;8.490;2023-07-31T04:11:12;17.50;1.00
14031;DHT22;7090;49.436;8.490;2023-07-31T04:13:38;17.50;1.00
14031;DHT22;7090;49.436;8.490;2023-07-31T04:16:03;17.50;1.00
14031;DHT22;7090;49.436;8.490;2023-07-31T04:18:29;17.50;1.00
14031;DHT22;7090;49.436;8.490;2023-07-31T04:20:56;17.50;1.00
14031;DHT22;7090;49.436;8.490;2023-07-31T04:23:24;17.50;1.00
14031;DHT22;7090;49.436;8.490;2023-07-31T04:25:49;17.50;1.00
14031;DHT22;7090;49.436;8.490;2023-07-31T04:28:15;17.50;1.00
14031;DHT22;7090;49.436;8.490;2023-07-31T04:30:40;17.50;15.40
14031;DHT22;7090;49.436;8.490;2023-07-31T04:33:06;17.50;1.00
14031;DHT22;7090;49.436;8.490;2023-07-31T04:35:32;17.50;1.00
14031;DHT22;7090;49.436;8.490;2023-07-31T04:37:57;17.60;1.00
14031;DHT22;7090;49.436;8.490;2023-07-31T04:40:23;17.60;1.00
14031;DHT22;7090;49.436;8.490;2023-07-31T04:42:48;17.60;1.00
14031;DHT22;7090;49.436;8.490;2023-07-31T04:45:14;17.60;1.00
14031;DHT22;7090;49.436;8.490;2023-07-31T04:47:40;17.70;1.00
14031;DHT22;7090;49.436;8.490;2023-07-31T04:50:06;17.70;1.00
14031;DHT22;7090;49.436;8.490;2023-07-31T04:52:31;17.70;1.00
14031;DHT22;7090;49.436;8.490;2023-07-31T04:54:57;17.70;1.00
14031;DHT22;7090;49.436;8.490;2023-07-31T04:57:23;17.80;1.00
14031;DHT22;7090;49.436;8.490;2023-07-31T04:59:48;17.80;1.00
14031;DHT22;7090;49.436;8.490;2023-07-31T05:02:14;17.80;1.00
14031;DHT22;7090;49.436;8.490;2023-07-31T05:04:39;17.90;1.00
14031;DHT22;7090;49.436;8.490;2023-07-31T05:07:05;17.80;1.00
14031;DHT22;7090;49.436;8.490;2023-07-31T05:09:31;17.80;1.00
14031;DHT22;7090;49.436;8.490;2023-07-31T05:11:56;17.90;1.00
14031;DHT22;7090;49.436;8.490;2023-07-31T05:14:23;17.90;1.00
14031;DHT22;7090;49.436;8.490;2023-07-31T05:16:49;17.90;1.00
14031;DHT22;7090;49.436;8.490;2023-07-31T05:19:14;18.00;1.00
14031;DHT22;7090;49.436;8.490;2023-07-31T05:21:40;18.00;1.00
14031;DHT22;7090;49.436;8.490;2023-07-31T05:24:06;18.00;1.00
14031;DHT22;7090;49.436;8.490;2023-07-31T05:26:32;18.00;1.00
14031;DHT22;7090;49.436;8.490;2023-07-31T05:28:57;18.00;1.00
14031;DHT22;7090;49.436;8.490;2023-07-31T05:31:24;18.00;1.00
14031;DHT22;7090;49.436;8.490;2023-07-31T05:33:50;18.00;1.00
14031;DHT22;7090;49.436;8.490;2023-07-31T05:36:16;18.00;1.00
14031;DHT22;7090;49.436;8.490;2023-07-31T05:38:42;18.00;1.00
14031;DHT22;7090;49.436;8.490;2023-07-31T05:41:11;18.00;1.00
14031;DHT22;7090;49.436;8.490;2023-07-31T05:43:36;18.00;1.00
14031;DHT22;7090;49.436;8.490;2023-07-31T05:46:02;18.10;1.00
14031;DHT22;7090;49.436;8.490;2023-07-31T05:48:27;18.20;1.00
14031;DHT22;7090;49.436;8.490;2023-07-31T05:50:53;18.20;1.00
14031;DHT22;7090;49.436;8.490;2023-07-31T05:53:18;18.20;1.00
14031;DHT22;7090;49.436;8.490;2023-07-31T05:55:44;18.30;1.00
14031;DHT22;7090;49.436;8.490;2023-07-31T05:58:10;18.30;1.00
14031;DHT22;7090;49.436;8.490;2023-07-31T06:00:35;18.20;1.00
14031;DHT22;7090;49.436;8.490;2023-07-31T06:03:01;18.30;1.00
14031;DHT22;7090;49.436;8.490;2023-07-31T06:05:27;18.40;1.00
14031;DHT22;7090;49.436;8.490;2023-07-31T06:07:54;18.40;1.00
14031;DHT22;7090;49.436;8.490;2023-07-31T06:10:20;18.40;1.00
14031;DHT22;7090;49.436;8.490;2023-07-31T06:12:45;18.40;1.00
14031;DHT22;7090;49.436;8.490;2023-07-31T06:15:11;18.40;1.00
14031;DHT22;7090;49.436;8.490;2023-07-31T06:17:36;18.60;1.00
14031;DHT22;7090;49.436;8.490;2023-07-31T06:20:02;18.60;1.00
14031;DHT22;7090;49.436;8.490;2023-07-31T06:22:30;18.70;1.00
14031;DHT22;7090;49.436;8.490;2023-07-31T06:24:56;18.80;1.00
14031;DHT22;7090;49.436;8.490;2023-07-31T06:27:21;18.90;1.00
14031;DHT22;7090;49.436;8.490;2023-07-31T06:29:47;18.80;1.00
14031;DHT22;7090;49.436;8.490;2023-07-31T06:32:13;18.80;1.00
14031;DHT22;7090;49.436;8.490;2023-07-31T06:34:39;18.80;1.00
14031;DHT22;7090;49.436;8.490;2023-07-31T06:37:05;18.80;95.80
14031;DHT22;7090;49.436;8.490;2023-07-31T06:39:30;18.80;85.00
14031;DHT22;7090;49.436;8.490;2023-07-31T06:41:56;18.90;50.90
14031;DHT22;7090;49.436;8.490;2023-07-31T06:44:21;19.00;1.00
14031;DHT22;7090;49.436;8.490;2023-07-31T06:46:47;19.00;1.00
14031;DHT22;7090;49.436;8.490;2023-07-31T06:49:13;19.00;1.00
14031;DHT22;7090;49.436;8.490;2023-07-31T06:51:40;19.10;1.00
14031;DHT22;7090;49.436;8.490;2023-07-31T06:54:07;19.00;1.00
14031;DHT22;7090;49.436;8.490;2023-07-31T06:56:33;19.00;1.00
14031;DHT22;7090;49.436;8.490;2023-07-31T06:58:58;19.00;1.00
14031;DHT22;7090;49.436;8.490;2023-07-31T07:01:24;19.10;1.00
14031;DHT22;7090;49.436;8.490;2023-07-31T07:03:50;19.00;1.00
14031;DHT22;7090;49.436;8.490;2023-07-31T07:06:16;19.00;1.00
14031;DHT22;7090;49.436;8.490;2023-07-31T07:08:43;19.00;1.00
14031;DHT22;7090;49.436;8.490;2023-07-31T07:11:08;19.10;1.00
14031;DHT22;7090;49.436;8.490;2023-07-31T07:13:34;19.20;1.00
14031;DHT22;7090;49.436;8.490;2023-07-31T07:15:59;19.30;1.00
14031;DHT22;7090;49.436;8.490;2023-07-31T07:18:25;19.60;1.00
14031;DHT22;7090;49.436;8.490;2023-07-31T07:20:52;19.90;1.00
14031;DHT22;7090;49.436;8.490;2023-07-31T07:23:18;19.90;1.00
14031;DHT22;7090;49.436;8.490;2023-07-31T07:25:45;19.90;1.00
14031;DHT22;7090;49.436;8.490;2023-07-31T07:28:11;20.30;99.90
14031;DHT22;7090;49.436;8.490;2023-07-31T07:30:37;20.20;99.90
14031;DHT22;7090;49.436;8.490;2023-07-31T07:33:03;19.90;99.90
14031;DHT22;7090;49.436;8.490;2023-07-31T07:35:28;20.00;99.90
14031;DHT22;7090;49.436;8.490;2023-07-31T07:37:55;20.00;99.90
14031;DHT22;7090;49.436;8.490;2023-07-31T07:40:21;19.80;99.90
14031;DHT22;7090;49.436;8.490;2023-07-31T07:42:47;19.70;1.00
14031;DHT22;7090;49.436;8.490;2023-07-31T07:45:12;19.90;1.00
14031;DHT22;7090;49.436;8.490;2023-07-31T07:47:40;20.00;99.90
14031;DHT22;7090;49.436;8.490;2023-07-31T07:50:06;20.10;99.90
14031;DHT22;7090;49.436;8.490;2023-07-31T07:52:32;20.20;99.90
14031;DHT22;7090;49.436;8.490;2023-07-31T07:54:57;20.30;99.90
14031;DHT22;7090;49.436;8.490;2023-07-31T07:57:23;20.50;99.90
14031;DHT22;7090;49.436;8.490;2023-07-31T07:59:48;20.90;22.10
14031;DHT22;7090;49.436;8.490;2023-07-31T08:02:14;21.20;1.00
14031;DHT22;7090;49.436;8.490;2023-07-31T08:04:39;21.50;1.00
14031;DHT22;7090;49.436;8.490;2023-07-31T08:07:05;21.70;1.00
14031;DHT22;7090;49.436;8.490;2023-07-31T08:09:31;21.50;1.00
14031;DHT22;7090;49.436;8.490;2023-07-31T08:11:56;21.20;1.00
14031;DHT22;7090;49.436;8.490;2023-07-31T08:14:27;21.50;1.00
14031;DHT22;7090;49.436;8.490;2023-07-31T08:16:53;21.50;1.00
14031;DHT22;7090;49.436;8.490;2023-07-31T08:19:18;21.70;1.00
14031;DHT22;7090;49.436;8.490;2023-07-31T08:21:44;21.50;1.00
14031;DHT22;7090;49.436;8.490;2023-07-31T08:24:10;21.70;1.00
14031;DHT22;7090;49.436;8.490;2023-07-31T08:26:35;22.00;1.00
14031;DHT22;7090;49.436;8.490;2023-07-31T08:29:01;22.00;1.00
14031;DHT22;7090;49.436;8.490;2023-07-31T08:31:26;21.70;1.00
14031;DHT22;7090;49.436;8.490;2023-07-31T08:33:52;21.80;99.90
14031;DHT22;7090;49.436;8.490;2023-07-31T08:36:18;21.70;1.00
14031;DHT22;7090;49.436;8.490;2023-07-31T08:38:45;21.70;1.00
14031;DHT22;7090;49.436;8.490;2023-07-31T08:41:10;21.80;1.00
14031;DHT22;7090;49.436;8.490;2023-07-31T08:43:38;21.80;1.00
14031;DHT22;7090;49.436;8.490;2023-07-31T08:46:04;22.30;1.00
14031;DHT22;7090;49.436;8.490;2023-07-31T08:48:31;21.60;1.00
14031;DHT22;7090;49.436;8.490;2023-07-31T08:50:57;21.80;99.90
14031;DHT22;7090;49.436;8.490;2023-07-31T08:53:22;21.70;1.00
14031;DHT22;7090;49.436;8.490;2023-07-31T08:55:49;21.70;1.00
14031;DHT22;7090;49.436;8.490;2023-07-31T08:58:15;21.70;1.00
14031;DHT22;7090;49.436;8.490;2023-07-31T09:00:41;21.60;1.00
14031;DHT22;7090;49.436;8.490;2023-07-31T09:03:15;21.60;1.00
14031;DHT22;7090;49.436;8.490;2023-07-31T09:05:44;21.50;1.00
14031;DHT22;7090;49.436;8.490;2023-07-31T09:08:11;21.40;1.00
14031;DHT22;7090;49.436;8.490;2023-07-31T09:10:44;21.40;99.90
14031;DHT22;7090;49.436;8.490;2023-07-31T09:13:12;21.40;99.90
14031;DHT22;7090;49.436;8.490;2023-07-31T09:15:37;21.50;99.90
14031;DHT22;7090;49.436;8.490;2023-07-31T09:18:05;21.40;99.90
14031;DHT22;7090;49.436;8.490;2023-07-31T09:20:31;21.40;99.90
14031;DHT22;7090;49.436;8.490;2023-07-31T09:23:10;21.70;99.90
14031;DHT22;7090;49.436;8.490;2023-07-31T09:25:36;21.80;99.90
14031;DHT22;7090;49.436;8.490;2023-07-31T09:28:04;22.00;99.90
14031;DHT22;7090;49.436;8.490;2023-07-31T09:30:36;22.20;99.90
14031;DHT22;7090;49.436;8.490;2023-07-31T09:33:09;22.00;99.90
14031;DHT22;7090;49.436;8.490;2023-07-31T09:35:35;22.30;99.90
14031;DHT22;7090;49.436;8.490;2023-07-31T09:38:07;22.40;10.70
14031;DHT22;7090;49.436;8.490;2023-07-31T09:40:37;22.70;1.00
14031;DHT22;7090;49.436;8.490;2023-07-31T09:43:10;22.70;65.40
14031;DHT22;7090;49.436;8.490;2023-07-31T09:45:41;23.30;99.90
14031;DHT22;7090;49.436;8.490;2023-07-31T09:48:09;23.20;1.00
14031;DHT22;7090;49.436;8.490;2023-07-31T09:50:37;23.40;99.90
14031;DHT22;7090;49.436;8.490;2023-07-31T09:53:03;23.20;99.90
14031;DHT22;7090;49.436;8.490;2023-07-31T09:55:29;23.50;99.90
14031;DHT22;7090;49.436;8.490;2023-07-31T09:57:57;23.50;99.90
14031;DHT22;7090;49.436;8.490;2023-07-31T10:00:24;23.40;99.90
14031;DHT22;7090;49.436;8.490;2023-07-31T10:02:54;23.30;99.90
14031;DHT22;7090;49.436;8.490;2023-07-31T10:05:19;22.90;99.90
14031;DHT22;7090;49.436;8.490;2023-07-31T10:07:52;22.90;1.00
14031;DHT22;7090;49.436;8.490;2023-07-31T10:10:21;22.90;1.00
14031;DHT22;7090;49.436;8.490;2023-07-31T10:12:48;23.10;50.60
14031;DHT22;7090;49.436;8.490;2023-07-31T10:15:15;22.80;1.00
14031;DHT22;7090;49.436;8.490;2023-07-31T10:17:40;23.00;1.00
14031;DHT22;7090;49.436;8.490;2023-07-31T10:20:07;22.70;99.90
14031;DHT22;7090;49.436;8.490;2023-07-31T10:22:34;22.90;1.00
14031;DHT22;7090;49.436;8.490;2023-07-31T10:25:00;23.00;1.00
14031;DHT22;7090;49.436;8.490;2023-07-31T10:27:26;23.10;1.00
14031;DHT22;7090;49.436;8.490;2023-07-31T10:29:54;22.80;1.00
14031;DHT22;7090;49.436;8.490;2023-07-31T10:32:20;23.10;1.00
14031;DHT22;7090;49.436;8.490;2023-07-31T10:34:48;23.10;1.00
14031;DHT22;7090;49.436;8.490;2023-07-31T10:37:36;23.10;1.00
14031;DHT22;7090;49.436;8.490;2023-07-31T10:40:04;23.30;1.00
14031;DHT22;7090;49.436;8.490;2023-07-31T10:42:35;23.20;1.00
14031;DHT22;7090;49.436;8.490;2023-07-31T10:45:05;23.00;1.00
14031;DHT22;7090;49.436;8.490;2023-07-31T10:47:36;23.10;1.00
14031;DHT22;7090;49.436;8.490;2023-07-31T10:50:32;23.20;1.00
14031;DHT22;7090;49.436;8.490;2023-07-31T10:52:58;23.10;1.00
14031;DHT22;7090;49.436;8.490;2023-07-31T10:55:30;23.10;1.00
14031;DHT22;7090;49.436;8.490;2023-07-31T10:58:16;23.00;1.00
14031;DHT22;7090;49.436;8.490;2023-07-31T11:00:44;22.90;99.90
14031;DHT22;7090;49.436;8.490;2023-07-31T11:03:11;22.70;1.00
14031;DHT22;7090;49.436;8.490;2023-07-31T11:05:53;22.80;1.00
14031;DHT22;7090;49.436;8.490;2023-07-31T11:15:58;22.80;99.90
14031;DHT22;7090;49.436;8.490;2023-07-31T11:18:24;22.80;99.90
14031;DHT22;7090;49.436;8.490;2023-07-31T11:20:49;22.80;99.90
14031;DHT22;7090;49.436;8.490;2023-07-31T11:23:17;23.00;99.90
14031;DHT22;7090;49.436;8.490;2023-07-31T11:25:43;22.90;99.90
14031;DHT22;7090;49.436;8.490;2023-07-31T11:28:10;22.70;99.90
14031;DHT22;7090;49.436;8.490;2023-07-31T11:30:37;23.00;1.00
14031;DHT22;7090;49.436;8.490;2023-07-31T11:33:04;23.10;99.90
14031;DHT22;7090;49.436;8.490;2023-07-31T11:35:34;23.20;99.90
14031;DHT22;7090;49.436;8.490;2023-07-31T11:38:00;23.00;99.90
14031;DHT22;7090;49.436;8.490;2023-07-31T11:40:27;23.00;99.90
14031;DHT22;7090;49.436;8.490;2023-07-31T11:42:56;23.00;99.90
14031;DHT22;7090;49.436;8.490;2023-07-31T11:45:25;23.00;99.90
14031;DHT22;7090;49.436;8.490;2023-07-31T11:47:52;22.90;99.90
14031;DHT22;7090;49.436;8.490;2023-07-31T11:50:19;23.00;99.90
14031;DHT22;7090;49.436;8.490;2023-07-31T11:52:45;23.00;99.90
14031;DHT22;7090;49.436;8.490;2023-07-31T11:55:12;22.90;99.90
14031;DHT22;7090;49.436;8.490;2023-07-31T11:57:39;23.10;99.90
14031;DHT22;7090;49.436;8.490;2023-07-31T12:00:08;23.00;99.90
14031;DHT22;7090;49.436;8.490;2023-07-31T12:02:35;23.00;99.90
14031;DHT22;7090;49.436;8.490;2023-07-31T12:05:01;23.00;99.90
14031;DHT22;7090;49.436;8.490;2023-07-31T12:07:27;23.00;99.90
14031;DHT22;7090;49.436;8.490;2023-07-31T12:09:54;23.00;99.90
14031;DHT22;7090;49.436;8.490;2023-07-31T12:12:21;23.20;99.90
14031;DHT22;7090;49.436;8.490;2023-07-31T12:14:47;23.20;99.90
14031;DHT22;7090;49.436;8.490;2023-07-31T12:17:14;23.30;1.00
14031;DHT22;7090;49.436;8.490;2023-07-31T12:19:40;23.20;1.00
14031;DHT22;7090;49.436;8.490;2023-07-31T12:22:16;23.30;1.00
14031;DHT22;7090;49.436;8.490;2023-07-31T12:24:44;23.30;1.00
14031;DHT22;7090;49.436;8.490;2023-07-31T12:27:14;23.30;1.00
14031;DHT22;7090;49.436;8.490;2023-07-31T12:29:41;23.30;1.00
14031;DHT22;7090;49.436;8.490;2023-07-31T12:32:24;23.30;1.00
14031;DHT22;7090;49.436;8.490;2023-07-31T12:34:50;23.20;1.00
14031;DHT22;7090;49.436;8.490;2023-07-31T12:37:16;23.20;99.90
14031;DHT22;7090;49.436;8.490;2023-07-31T12:39:42;23.50;99.90
14031;DHT22;7090;49.436;8.490;2023-07-31T12:42:08;23.40;99.90
14031;DHT22;7090;49.436;8.490;2023-07-31T12:44:33;23.60;1.00
14031;DHT22;7090;49.436;8.490;2023-07-31T12:46:59;23.60;1.00
14031;DHT22;7090;49.436;8.490;2023-07-31T12:49:24;23.60;55.30
14031;DHT22;7090;49.436;8.490;2023-07-31T12:51:50;23.40;1.00
14031;DHT22;7090;49.436;8.490;2023-07-31T12:54:15;23.20;1.00
14031;DHT22;7090;49.436;8.490;2023-07-31T12:56:41;23.10;1.00
14031;DHT22;7090;49.436;8.490;2023-07-31T12:59:07;23.30;1.00
14031;DHT22;7090;49.436;8.490;2023-07-31T13:01:32;23.50;50.20
14031;DHT22;7090;49.436;8.490;2023-07-31T13:03:58;23.70;1.00
14031;DHT22;7090;49.436;8.490;2023-07-31T13:06:25;23.80;1.00
14031;DHT22;7090;49.436;8.490;2023-07-31T13:08:51;23.70;1.00
14031;DHT22;7090;49.436;8.490;2023-07-31T13:11:17;23.60;1.00
14031;DHT22;7090;49.436;8.490;2023-07-31T13:13:42;23.70;1.00
14031;DHT22;7090;49.436;8.490;2023-07-31T13:16:08;23.50;1.00
14031;DHT22;7090;49.436;8.490;2023-07-31T13:18:33;23.60;1.00
14031;DHT22;7090;49.436;8.490;2023-07-31T13:20:59;23.60;1.00
14031;DHT22;7090;49.436;8.490;2023-07-31T13:23:24;23.60;1.00
14031;DHT22;7090;49.436;8.490;2023-07-31T13:25:50;23.40;1.00
14031;DHT22;7090;49.436;8.490;2023-07-31T13:28:16;23.50;1.00
14031;DHT22;7090;49.436;8.490;2023-07-31T13:30:41;23.40;1.00
14031;DHT22;7090;49.436;8.490;2023-07-31T13:33:07;23.40;1.00
14031;DHT22;7090;49.436;8.490;2023-07-31T13:35:32;23.30;1.00
14031;DHT22;7090;49.436;8.490;2023-07-31T13:37:58;23.30;1.00
14031;DHT22;7090;49.436;8.490;2023-07-31T13:40:23;23.30;1.00
14031;DHT22;7090;49.436;8.490;2023-07-31T13:42:49;23.30;1.00
14031;DHT22;7090;49.436;8.490;2023-07-31T13:45:14;23.30;1.00
14031;DHT22;7090;49.436;8.490;2023-07-31T13:47:40;23.30;1.00
14031;DHT22;7090;49.436;8.490;2023-07-31T13:50:06;23.30;1.00
14031;DHT22;7090;49.436;8.490;2023-07-31T13:52:32;23.30;1.00
14031;DHT22;7090;49.436;8.490;2023-07-31T13:54:57;23.40;1.00
14031;DHT22;7090;49.436;8.490;2023-07-31T13:57:23;23.30;1.00
14031;DHT22;7090;49.436;8.490;2023-07-31T13:59:49;23.30;1.00
14031;DHT22;7090;49.436;8.490;2023-07-31T14:02:14;23.40;1.00
14031;DHT22;7090;49.436;8.490;2023-07-31T14:04:40;23.20;1.00
14031;DHT22;7090;49.436;8.490;2023-07-31T14:07:06;23.20;1.00
14031;DHT22;7090;49.436;8.490;2023-07-31T14:09:32;23.20;1.00
14031;DHT22;7090;49.436;8.490;2023-07-31T14:11:57;23.20;1.00
14031;DHT22;7090;49.436;8.490;2023-07-31T14:14:23;23.10;1.00
14031;DHT22;7090;49.436;8.490;2023-07-31T14:16:49;23.10;1.00
14031;DHT22;7090;49.436;8.490;2023-07-31T14:19:14;23.10;1.00
14031;DHT22;7090;49.436;8.490;2023-07-31T14:21:40;23.20;1.00
14031;DHT22;7090;49.436;8.490;2023-07-31T14:24:05;23.10;1.00
14031;DHT22;7090;49.436;8.490;2023-07-31T14:26:31;23.00;1.00
14031;DHT22;7090;49.436;8.490;2023-07-31T14:28:57;23.00;1.00
14031;DHT22;7090;49.436;8.490;2023-07-31T14:31:23;23.10;1.00
14031;DHT22;7090;49.436;8.490;2023-07-31T14:33:48;23.20;1.00
14031;DHT22;7090;49.436;8.490;2023-07-31T14:36:14;23.20;99.90
14031;DHT22;7090;49.436;8.490;2023-07-31T14:38:39;23.30;99.90
14031;DHT22;7090;49.436;8.490;2023-07-31T14:41:05;23.30;99.90
14031;DHT22;7090;49.436;8.490;2023-07-31T14:43:31;23.50;99.90
14031;DHT22;7090;49.436;8.490;2023-07-31T14:45:57;23.40;1.00
14031;DHT22;7090;49.436;8.490;2023-07-31T14:48:25;23.40;1.00
14031;DHT22;7090;49.436;8.490;2023-07-31T14:50:51;23.40;1.00
14031;DHT22;7090;49.436;8.490;2023-07-31T14:53:16;23.50;99.90
14031;DHT22;7090;49.436;8.490;2023-07-31T14:55:42;23.70;99.90
14031;DHT22;7090;49.436;8.490;2023-07-31T14:58:07;23.90;99.90
14031;DHT22;7090;49.436;8.490;2023-07-31T15:00:35;23.90;99.90
14031;DHT22;7090;49.436;8.490;2023-07-31T15:03:02;23.80;99.90
14031;DHT22;7090;49.436;8.490;2023-07-31T15:05:27;23.90;99.90
14031;DHT22;7090;49.436;8.490;2023-07-31T15:07:53;23.90;99.90
14031;DHT22;7090;49.436;8.490;2023-07-31T15:10:18;24.10;99.90
14031;DHT22;7090;49.436;8.490;2023-07-31T15:12:44;24.00;99.90
14031;DHT22;7090;49.436;8.490;2023-07-31T15:15:10;23.80;1.00
14031;DHT22;7090;49.436;8.490;2023-07-31T15:17:35;23.80;1.00
14031;DHT22;7090;49.436;8.490;2023-07-31T15:20:01;24.10;99.90
14031;DHT22;7090;49.436;8.490;2023-07-31T15:22:27;23.80;99.90
14031;DHT22;7090;49.436;8.490;2023-07-31T15:24:52;23.80;99.90
14031;DHT22;7090;49.436;8.490;2023-07-31T15:27:18;23.80;99.90
14031;DHT22;7090;49.436;8.490;2023-07-31T15:29:43;23.70;99.90
14031;DHT22;7090;49.436;8.490;2023-07-31T15:32:09;23.80;99.90
14031;DHT22;7090;49.436;8.490;2023-07-31T15:34:35;23.60;99.90
14031;DHT22;7090;49.436;8.490;2023-07-31T15:37:00;23.90;99.90
14031;DHT22;7090;49.436;8.490;2023-07-31T15:39:26;23.70;99.90
14031;DHT22;7090;49.436;8.490;2023-07-31T15:41:51;23.60;1.00
14031;DHT22;7090;49.436;8.490;2023-07-31T15:44:17;23.60;99.90
14031;DHT22;7090;49.436;8.490;2023-07-31T15:46:43;23.60;23.10
14031;DHT22;7090;49.436;8.490;2023-07-31T15:49:09;23.70;76.70
14031;DHT22;7090;49.436;8.490;2023-07-31T15:51:35;23.80;99.90
14031;DHT22;7090;49.436;8.490;2023-07-31T15:54:00;23.80;93.10
14031;DHT22;7090;49.436;8.490;2023-07-31T15:56:26;23.80;99.90
14031;DHT22;7090;49.436;8.490;2023-07-31T15:58:52;23.70;37.70
14031;DHT22;7090;49.436;8.490;2023-07-31T16:01:17;23.60;8.40
14031;DHT22;7090;49.436;8.490;2023-07-31T16:03:43;23.70;99.90
14031;DHT22;7090;49.436;8.490;2023-07-31T16:06:09;23.60;1.00
14031;DHT22;7090;49.436;8.490;2023-07-31T16:08:34;23.50;99.90